Time;durP1;ratioP1;P1;durP2;ratioP2;P2;SDS_P1;SDS_P2;PMS_P1;PMS_P2;Temp;Humidity;BMP_temperature;BMP_pressure;BME280_temperature;BME280_humidity;BME280_pressure;Samples;Min_cycle;Max_cycle;Signal;HPM_P1;HPM_P2
2022/05/23 00:02:18;;;;;;;5.25;1.90;;;;;;;;;;5034292;28;20061;-46
2022/05/23 00:04:45;;;;;;;3.92;1.80;;;;;;;;;;5033851;28;20049;-45
2022/05/23 00:07:22;;;;;;;1.80;1.65;;;;;;;;;;5034374;28;20078;-45
2022/05/23 00:09:51;;;;;;;2.42;1.88;;;;;;;;;;5035351;28;20025;-44
2022/05/23 00:12:16;;;;;;;3.20;1.90;;;;;;;;;;5035412;28;20052;-45
2022/05/23 00:14:43;;;;;;;4.00;1.92;;;;;;;;;;5034890;28;20450;-44
2022/05/23 00:17:11;;;;;;;3.25;1.83;;;;;;;;;;5035379;28;20080;-44
2022/05/23 00:19:37;;;;;;;2.35;1.85;;;;;;;;;;5035030;28;20029;-46
2022/05/23 00:22:02;;;;;;;4.53;2.00;;;;;;;;;;5035108;28;20029;-46
2022/05/23 00:24:28;;;;;;;3.08;2.35;;;;;;;;;;5034912;28;20021;-44
2022/05/23 00:26:53;;;;;;;1.92;1.80;;;;;;;;;;5034707;28;20029;-46
2022/05/23 00:29:19;;;;;;;2.75;2.10;;;;;;;;;;5035102;28;20045;-44
2022/05/23 00:37:13;;;;;;;4.03;2.17;;;;;;;;;;5034839;28;20040;-45
2022/05/23 00:39:39;;;;;;;5.75;2.05;;;;;;;;;;5035014;28;20440;-44
2022/05/23 00:44:54;;;;;;;3.15;1.90;;;;;;;;;;5034750;28;20080;-44
2022/05/23 00:47:21;;;;;;;6.53;1.83;;;;;;;;;;5034543;28;20022;-44
2022/05/23 00:49:47;;;;;;;2.15;1.95;;;;;;;;;;5034494;28;20033;-44
2022/05/23 00:52:26;;;;;;;5.82;2.30;;;;;;;;;;5034688;28;20017;-44
2022/05/23 00:54:56;;;;;;;5.63;2.03;;;;;;;;;;5034488;28;20026;-44
2022/05/23 00:57:27;;;;;;;1.75;1.65;;;;;;;;;;5034363;28;20025;-44
2022/05/23 00:59:54;;;;;;;1.98;1.48;;;;;;;;;;5034602;28;20061;-44
2022/05/23 01:02:21;;;;;;;1.00;0.95;;;;;;;;;;5034453;28;20386;-44
2022/05/23 01:04:47;;;;;;;1.67;1.58;;;;;;;;;;5033824;28;20072;-46
2022/05/23 01:07:13;;;;;;;1.67;1.42;;;;;;;;;;5034127;28;20087;-43
2022/05/23 01:09:38;;;;;;;2.92;2.22;;;;;;;;;;5034174;28;20461;-45
2022/05/23 01:12:05;;;;;;;2.28;1.60;;;;;;;;;;5033998;28;20025;-43
2022/05/23 01:14:49;;;;;;;2.42;2.22;;;;;;;;;;5034281;28;20033;-44
2022/05/23 01:17:15;;;;;;;4.50;2.40;;;;;;;;;;5034202;28;20044;-46
2022/05/23 01:19:40;;;;;;;3.80;2.20;;;;;;;;;;5033874;28;20021;-44
2022/05/23 01:22:18;;;;;;;2.78;2.15;;;;;;;;;;5033967;28;20079;-45
2022/05/23 01:25:15;;;;;;;3.90;2.60;;;;;;;;;;5034109;28;20056;-44
2022/05/23 01:27:41;;;;;;;3.03;2.05;;;;;;;;;;5025387;28;20366;-44
2022/05/23 01:30:08;;;;;;;3.35;2.35;;;;;;;;;;5034026;28;20119;-43
2022/05/23 01:32:34;;;;;;;6.45;2.30;;;;;;;;;;5033531;28;20025;-44
2022/05/23 01:34:59;;;;;;;4.32;2.38;;;;;;;;;;5033921;28;20081;-45
2022/05/23 01:37:24;;;;;;;2.78;2.35;;;;;;;;;;5033874;28;20507;-44
2022/05/23 01:39:50;;;;;;;2.17;1.95;;;;;;;;;;5033520;28;20481;-44
2022/05/23 01:42:15;;;;;;;3.05;1.55;;;;;;;;;;5033412;28;20053;-43
2022/05/23 01:44:41;;;;;;;1.40;1.33;;;;;;;;;;5032223;28;20124;-43
2022/05/23 01:47:11;;;;;;;4.22;1.75;;;;;;;;;;5033267;28;20053;-44
2022/05/23 01:49:37;;;;;;;5.43;2.28;;;;;;;;;;5033371;28;20021;-44
2022/05/23 01:52:03;;;;;;;3.42;1.95;;;;;;;;;;5033257;28;20129;-44
2022/05/23 01:54:28;;;;;;;2.80;2.20;;;;;;;;;;5015493;28;20076;-44
2022/05/23 01:56:53;;;;;;;6.72;2.50;;;;;;;;;;5032663;28;20057;-44
2022/05/23 02:02:03;;;;;;;3.67;2.70;;;;;;;;;;5033236;28;20041;-44
2022/05/23 02:04:29;;;;;;;3.47;2.50;;;;;;;;;;5032876;28;20393;-44
2022/05/23 02:06:54;;;;;;;4.85;2.60;;;;;;;;;;5033361;28;20033;-45
2022/05/23 02:09:26;;;;;;;4.18;2.65;;;;;;;;;;5033007;28;20029;-44
2022/05/23 02:11:54;;;;;;;2.90;2.58;;;;;;;;;;5033071;28;20488;-44
2022/05/23 02:14:20;;;;;;;7.47;2.95;;;;;;;;;;5033035;28;20472;-44
2022/05/23 02:16:46;;;;;;;3.33;2.42;;;;;;;;;;5015114;28;20063;-44
2022/05/23 02:19:11;;;;;;;1.02;1.02;;;;;;;;;;5033473;28;20159;-44
2022/05/23 02:21:37;;;;;;;2.30;2.10;;;;;;;;;;5032676;28;20053;-44
2022/05/23 02:24:06;;;;;;;3.42;2.40;;;;;;;;;;5032799;28;20037;-43
2022/05/23 02:26:32;;;;;;;5.23;2.93;;;;;;;;;;5014930;28;20061;-44
2022/05/23 02:28:58;;;;;;;3.95;2.50;;;;;;;;;;5032769;28;20020;-44
2022/05/23 02:31:25;;;;;;;4.78;2.78;;;;;;;;;;5032644;28;20079;-45
2022/05/23 02:33:50;;;;;;;8.30;3.10;;;;;;;;;;5032699;28;20037;-44
2022/05/23 02:36:16;;;;;;;4.60;2.97;;;;;;;;;;5032869;28;20025;-44
2022/05/23 02:38:41;;;;;;;3.08;2.78;;;;;;;;;;5032871;28;20428;-44
2022/05/23 02:41:07;;;;;;;4.30;2.90;;;;;;;;;;5032789;28;20072;-44
2022/05/23 02:43:32;;;;;;;3.53;3.03;;;;;;;;;;5032416;28;20091;-44
2022/05/23 02:45:58;;;;;;;3.05;2.47;;;;;;;;;;5032742;28;20389;-44
2022/05/23 02:48:24;;;;;;;5.50;2.90;;;;;;;;;;5032415;28;20025;-44
2022/05/23 02:50:49;;;;;;;7.28;3.03;;;;;;;;;;5032691;28;20036;-44
2022/05/23 02:53:15;;;;;;;7.72;2.47;;;;;;;;;;5032440;28;20468;-46
2022/05/23 02:55:40;;;;;;;7.50;2.72;;;;;;;;;;5032379;28;20033;-45
2022/05/23 02:58:07;;;;;;;4.30;2.67;;;;;;;;;;5032406;28;20026;-44
2022/05/23 03:00:33;;;;;;;3.50;2.88;;;;;;;;;;5032331;28;20030;-44
2022/05/23 03:03:01;;;;;;;5.97;3.10;;;;;;;;;;5032404;28;20037;-44
2022/05/23 03:05:28;;;;;;;6.68;2.95;;;;;;;;;;5032117;28;20061;-45
2022/05/23 03:07:54;;;;;;;3.05;2.58;;;;;;;;;;5032171;28;20030;-44
2022/05/23 03:10:19;;;;;;;3.55;2.65;;;;;;;;;;5035245;28;20025;-45
2022/05/23 03:12:45;;;;;;;6.80;3.08;;;;;;;;;;5036304;28;20080;-44
2022/05/23 03:15:12;;;;;;;3.75;3.15;;;;;;;;;;5036193;28;20032;-44
2022/05/23 03:17:38;;;;;;;4.35;2.80;;;;;;;;;;5036294;28;20477;-44
2022/05/23 03:20:05;;;;;;;5.22;2.70;;;;;;;;;;5036236;28;20029;-43
2022/05/23 03:28:00;;;;;;;3.88;2.22;;;;;;;;;;5036019;28;20091;-44
2022/05/23 03:30:25;;;;;;;3.95;2.53;;;;;;;;;;5035891;28;20024;-46
2022/05/23 03:32:51;;;;;;;6.15;2.63;;;;;;;;;;5036233;28;20033;-46
2022/05/23 03:35:17;;;;;;;4.18;2.40;;;;;;;;;;5035865;28;20048;-45
2022/05/23 03:37:42;;;;;;;3.53;2.35;;;;;;;;;;5035859;28;20025;-44
2022/05/23 03:40:09;;;;;;;3.45;2.30;;;;;;;;;;5035815;28;20076;-43
2022/05/23 03:42:35;;;;;;;3.30;2.35;;;;;;;;;;5035600;28;20416;-47
2022/05/23 03:45:01;;;;;;;2.55;2.10;;;;;;;;;;5018034;28;20037;-45
2022/05/23 03:47:26;;;;;;;3.33;2.10;;;;;;;;;;5035759;28;20025;-43
2022/05/23 03:49:52;;;;;;;4.75;2.55;;;;;;;;;;5035555;28;20029;-43
2022/05/23 03:52:17;;;;;;;9.60;2.20;;;;;;;;;;5035806;28;20030;-43
2022/05/23 03:54:43;;;;;;;2.95;2.35;;;;;;;;;;5035814;28;20022;-45
2022/05/23 03:57:08;;;;;;;3.10;2.08;;;;;;;;;;5035779;28;20022;-44
2022/05/23 03:59:34;;;;;;;4.47;2.40;;;;;;;;;;5035792;28;20078;-44
2022/05/23 04:01:59;;;;;;;6.03;2.00;;;;;;;;;;5035298;28;20049;-44
2022/05/23 04:04:26;;;;;;;7.90;2.38;;;;;;;;;;5035225;28;20056;-45
2022/05/23 04:06:52;;;;;;;4.38;2.00;;;;;;;;;;5035466;28;20044;-44
2022/05/23 04:09:18;;;;;;;2.63;2.00;;;;;;;;;;5035403;28;20025;-46
2022/05/23 04:11:44;;;;;;;9.70;1.70;;;;;;;;;;5035237;28;20030;-45
2022/05/23 04:14:10;;;;;;;7.30;1.98;;;;;;;;;;5035285;28;20021;-46
2022/05/23 04:16:35;;;;;;;15.73;1.25;;;;;;;;;;5035158;28;20385;-44
2022/05/23 04:19:08;;;;;;;4.65;1.90;;;;;;;;;;5035343;28;20068;-44
2022/05/23 04:21:34;;;;;;;2.17;1.38;;;;;;;;;;5034692;28;20021;-46
2022/05/23 04:23:59;;;;;;;3.55;1.80;;;;;;;;;;5035231;28;20059;-46
2022/05/23 04:26:25;;;;;;;4.32;1.92;;;;;;;;;;5035240;28;20064;-45
2022/05/23 04:28:50;;;;;;;2.40;1.80;;;;;;;;;;5034858;28;20029;-48
2022/05/23 04:31:15;;;;;;;4.15;1.38;;;;;;;;;;5034813;28;20030;-47
2022/05/23 04:36:25;;;;;;;2.28;1.25;;;;;;;;;;5035054;28;20384;-47
2022/05/23 04:38:51;;;;;;;3.80;1.58;;;;;;;;;;5017097;28;20026;-47
2022/05/23 04:41:16;;;;;;;1.95;1.00;;;;;;;;;;5034830;28;20022;-51
2022/05/23 04:43:42;;;;;;;3.50;1.60;;;;;;;;;;5033384;28;20028;-47
2022/05/23 04:46:07;;;;;;;4.13;1.50;;;;;;;;;;5034877;28;20091;-49
2022/05/23 04:51:17;;;;;;;5.90;1.75;;;;;;;;;;5034893;28;20037;-43
2022/05/23 04:53:42;;;;;;;4.38;1.42;;;;;;;;;;5034323;28;20386;-49
2022/05/23 04:56:07;;;;;;;2.35;1.55;;;;;;;;;;5034286;28;20087;-47
2022/05/23 04:58:33;;;;;;;4.15;1.80;;;;;;;;;;5034232;28;20021;-48
2022/05/23 05:01:00;;;;;;;11.00;1.33;;;;;;;;;;5034324;28;20025;-44
2022/05/23 05:03:25;;;;;;;0.90;0.75;;;;;;;;;;5034337;28;20499;-45
2022/05/23 05:05:51;;;;;;;2.08;1.13;;;;;;;;;;5033972;28;20076;-44
2022/05/23 05:08:17;;;;;;;3.03;1.35;;;;;;;;;;5034065;28;20370;-48
2022/05/23 05:10:42;;;;;;;2.42;1.10;;;;;;;;;;5034441;28;20511;-46
2022/05/23 05:13:08;;;;;;;1.58;1.17;;;;;;;;;;5033905;28;20021;-47
2022/05/23 05:15:35;;;;;;;4.53;1.33;;;;;;;;;;5033936;28;20488;-43
2022/05/23 05:18:00;;;;;;;1.52;1.35;;;;;;;;;;5033954;28;20036;-49
2022/05/23 05:20:26;;;;;;;1.20;1.08;;;;;;;;;;5034162;28;20381;-49
2022/05/23 05:22:52;;;;;;;2.08;0.80;;;;;;;;;;5034030;28;20377;-47
2022/05/23 05:25:18;;;;;;;1.20;1.10;;;;;;;;;;5034227;28;20032;-47
2022/05/23 05:27:44;;;;;;;2.00;1.27;;;;;;;;;;5033960;28;20021;-45
2022/05/23 05:30:13;;;;;;;4.50;1.35;;;;;;;;;;5034094;28;20044;-48
2022/05/23 05:32:40;;;;;;;2.40;1.00;;;;;;;;;;5032844;28;20030;-45
2022/05/23 05:35:14;;;;;;;4.00;1.23;;;;;;;;;;5033419;28;20266;-47
2022/05/23 05:37:49;;;;;;;1.35;1.10;;;;;;;;;;5033513;28;20097;-48
2022/05/23 05:40:18;;;;;;;0.95;0.88;;;;;;;;;;5033622;28;20492;-47
2022/05/23 05:42:48;;;;;;;1.77;0.70;;;;;;;;;;5033562;28;20112;-44
2022/05/23 05:45:25;;;;;;;3.37;1.40;;;;;;;;;;5016491;28;20029;-45
2022/05/23 05:47:51;;;;;;;1.38;1.00;;;;;;;;;;5033527;28;20290;-47
2022/05/23 05:50:33;;;;;;;0.80;0.80;;;;;;;;;;5033384;28;20052;-48
2022/05/23 05:53:03;;;;;;;1.63;0.98;;;;;;;;;;5033561;28;20030;-45
2022/05/23 05:55:29;;;;;;;2.45;1.40;;;;;;;;;;5033504;28;20026;-48
2022/05/23 05:57:56;;;;;;;2.15;1.13;;;;;;;;;;5015884;28;20021;-43
2022/05/23 06:00:22;;;;;;;1.40;1.02;;;;;;;;;;5033096;28;20036;-48
2022/05/23 06:02:49;;;;;;;1.35;1.10;;;;;;;;;;5032875;28;20025;-46
2022/05/23 06:05:14;;;;;;;1.95;0.70;;;;;;;;;;5032916;28;20049;-43
2022/05/23 06:13:08;;;;;;;1.90;0.80;;;;;;;;;;5032964;28;20086;-48
2022/05/23 06:15:33;;;;;;;1.20;1.10;;;;;;;;;;5033127;28;20101;-44
2022/05/23 06:17:59;;;;;;;5.28;1.25;;;;;;;;;;5032954;28;20032;-46
2022/05/23 06:20:25;;;;;;;3.15;1.00;;;;;;;;;;5032804;28;20489;-47
2022/05/23 06:22:51;;;;;;;1.02;0.82;;;;;;;;;;5032670;28;20068;-48
2022/05/23 06:25:17;;;;;;;1.70;1.15;;;;;;;;;;5032693;28;20051;-44
2022/05/23 06:27:43;;;;;;;1.50;0.80;;;;;;;;;;5015347;28;20025;-46
2022/05/23 06:30:11;;;;;;;1.15;0.85;;;;;;;;;;5032823;28;20044;-47
2022/05/23 06:32:37;;;;;;;1.23;1.13;;;;;;;;;;5015334;28;20079;-50
2022/05/23 06:35:07;;;;;;;3.90;0.85;;;;;;;;;;5032517;28;20416;-46
2022/05/23 06:37:37;;;;;;;1.33;0.85;;;;;;;;;;5015813;28;20033;-49
2022/05/23 06:40:05;;;;;;;3.78;1.20;;;;;;;;;;5032838;28;20033;-46
2022/05/23 06:42:32;;;;;;;2.90;1.02;;;;;;;;;;5032193;28;20571;-47
2022/05/23 06:44:58;;;;;;;2.00;1.27;;;;;;;;;;5032560;28;20034;-47
2022/05/23 06:47:24;;;;;;;1.02;0.93;;;;;;;;;;5032506;28;20057;-47
2022/05/23 06:49:50;;;;;;;1.02;0.80;;;;;;;;;;5032233;28;20064;-49
2022/05/23 06:52:15;;;;;;;4.15;0.82;;;;;;;;;;5032392;28;20030;-49
2022/05/23 06:54:42;;;;;;;2.03;1.05;;;;;;;;;;5032716;28;20018;-50
2022/05/23 06:57:08;;;;;;;1.33;1.10;;;;;;;;;;5032251;28;20037;-45
2022/05/23 06:59:34;;;;;;;0.95;0.70;;;;;;;;;;5032478;28;20112;-45
2022/05/23 07:02:01;;;;;;;0.57;0.57;;;;;;;;;;5032393;28;20048;-48
2022/05/23 07:12:19;;;;;;;1.10;1.08;;;;;;;;;;5032010;28;20503;-47
2022/05/23 07:12:40;;;;;;;2.85;0.80;;;;;;;;;;5030632;28;20091;-44
2022/05/23 07:15:07;;;;;;;0.50;0.50;;;;;;;;;;5013749;28;20029;-42
2022/05/23 07:17:32;;;;;;;3.30;0.98;;;;;;;;;;5031309;28;20033;-45
2022/05/23 07:19:58;;;;;;;4.53;0.90;;;;;;;;;;5031689;28;20486;-49
2022/05/23 07:22:24;;;;;;;1.17;0.95;;;;;;;;;;5032084;28;20456;-43
2022/05/23 07:24:49;;;;;;;1.30;1.00;;;;;;;;;;5032368;28;20079;-46
2022/05/23 07:27:15;;;;;;;3.03;1.10;;;;;;;;;;5032019;28;20049;-49
2022/05/23 07:29:41;;;;;;;1.17;0.75;;;;;;;;;;5031943;28;20392;-46
2022/05/23 07:32:11;;;;;;;2.15;1.02;;;;;;;;;;5031815;28;20033;-46
2022/05/23 07:34:37;;;;;;;0.93;0.82;;;;;;;;;;5031017;28;20044;-45
2022/05/23 07:37:03;;;;;;;3.13;1.20;;;;;;;;;;5030685;28;20536;-42
2022/05/23 07:39:28;;;;;;;3.42;1.00;;;;;;;;;;5031905;28;20029;-47
2022/05/23 07:41:54;;;;;;;2.30;1.15;;;;;;;;;;5031879;28;20104;-51
2022/05/23 07:44:19;;;;;;;1.45;1.20;;;;;;;;;;5031045;28;20064;-43
2022/05/23 07:46:45;;;;;;;2.13;1.05;;;;;;;;;;5031926;28;20370;-43
2022/05/23 07:49:10;;;;;;;1.35;1.10;;;;;;;;;;5031778;28;20057;-47
2022/05/23 07:51:38;;;;;;;1.23;1.13;;;;;;;;;;5032151;28;20022;-49
2022/05/23 08:02:18;;;;;;;2.08;1.20;;;;;;;;;;5035664;28;20068;-45
2022/05/23 08:04:44;;;;;;;1.85;1.10;;;;;;;;;;5035158;28;20049;-45
2022/05/23 08:07:10;;;;;;;1.05;1.00;;;;;;;;;;5035294;28;20029;-47
2022/05/23 08:09:38;;;;;;;2.95;1.05;;;;;;;;;;5029162;28;20021;-46
2022/05/23 08:12:06;;;;;;;4.95;0.93;;;;;;;;;;5033427;28;20029;-47
2022/05/23 08:14:31;;;;;;;1.42;1.15;;;;;;;;;;5033701;28;20055;-48
2022/05/23 08:16:58;;;;;;;1.45;1.17;;;;;;;;;;5033686;28;20484;-50
2022/05/23 08:19:23;;;;;;;3.75;1.10;;;;;;;;;;5033330;28;20036;-47
2022/05/23 08:21:55;;;;;;;1.23;1.13;;;;;;;;;;5033392;28;20029;-50
2022/05/23 08:24:21;;;;;;;2.25;1.30;;;;;;;;;;5033373;28;20029;-45
2022/05/23 08:26:46;;;;;;;0.88;0.85;;;;;;;;;;5033630;28;20584;-50
2022/05/23 08:29:12;;;;;;;1.85;1.20;;;;;;;;;;5033165;28;20086;-47
2022/05/23 08:31:37;;;;;;;5.03;1.27;;;;;;;;;;5033349;28;20026;-49
2022/05/23 08:34:04;;;;;;;1.40;0.82;;;;;;;;;;5033246;28;20025;-48
2022/05/23 08:36:30;;;;;;;0.57;0.52;;;;;;;;;;5033028;28;20026;-45
2022/05/23 08:38:55;;;;;;;6.32;0.98;;;;;;;;;;5033269;28;20036;-47
2022/05/23 08:41:30;;;;;;;3.22;1.40;;;;;;;;;;5033245;28;20029;-46
2022/05/23 08:44:37;;;;;;;3.95;1.10;;;;;;;;;;5032857;28;20025;-47
2022/05/23 08:47:08;;;;;;;3.47;1.25;;;;;;;;;;5032475;28;20045;-45
2022/05/23 08:49:43;;;;;;;2.65;1.30;;;;;;;;;;5033059;28;20408;-46
2022/05/23 08:52:26;;;;;;;1.70;1.10;;;;;;;;;;5032746;28;20036;-44
2022/05/23 08:55:01;;;;;;;1.40;1.27;;;;;;;;;;5032983;28;20029;-47
2022/05/23 08:57:35;;;;;;;1.08;1.00;;;;;;;;;;5032740;28;20166;-48
2022/05/23 09:00:10;;;;;;;1.35;0.90;;;;;;;;;;5032897;28;20124;-45
2022/05/23 09:02:46;;;;;;;1.17;1.05;;;;;;;;;;5032513;28;20033;-44
2022/05/23 09:05:22;;;;;;;1.55;1.20;;;;;;;;;;5032496;28;20048;-43
2022/05/23 09:07:54;;;;;;;4.65;2.58;;;;;;;;;;5032639;28;20030;-45
2022/05/23 09:10:27;;;;;;;1.38;0.77;;;;;;;;;;5032912;28;20391;-49
2022/05/23 09:12:53;;;;;;;1.88;1.15;;;;;;;;;;5032650;28;20075;-48
2022/05/23 09:15:20;;;;;;;3.38;1.00;;;;;;;;;;5032421;28;20025;-43
2022/05/23 09:17:52;;;;;;;1.85;1.10;;;;;;;;;;5032442;28;20052;-44
2022/05/23 09:20:28;;;;;;;1.35;1.13;;;;;;;;;;5032344;28;20025;-46
2022/05/23 09:22:56;;;;;;;4.45;1.83;;;;;;;;;;5032359;28;20042;-49
2022/05/23 09:25:25;;;;;;;4.60;1.33;;;;;;;;;;5032515;28;20061;-48
2022/05/23 09:28:02;;;;;;;4.38;2.05;;;;;;;;;;5032018;28;20026;-47
2022/05/23 09:30:28;;;;;;;3.20;2.33;;;;;;;;;;5032528;28;20072;-44
2022/05/23 09:32:59;;;;;;;0.80;0.80;;;;;;;;;;5032386;28;20053;-43
2022/05/23 09:35:46;;;;;;;1.15;0.90;;;;;;;;;;5032224;28;20079;-45
2022/05/23 09:38:25;;;;;;;3.53;1.80;;;;;;;;;;5032093;28;20017;-49
2022/05/23 09:40:53;;;;;;;2.22;0.88;;;;;;;;;;5031489;28;20040;-49
2022/05/23 09:49:04;;;;;;;5.30;1.10;;;;;;;;;;5032179;28;20080;-48
2022/05/23 09:51:30;;;;;;;1.90;1.00;;;;;;;;;;5031776;28;20033;-52
2022/05/23 09:54:00;;;;;;;0.90;0.88;;;;;;;;;;5031781;28;20526;-48
2022/05/23 09:56:39;;;;;;;1.17;0.90;;;;;;;;;;5013810;28;20068;-52
2022/05/23 09:59:20;;;;;;;7.10;0.98;;;;;;;;;;5031615;28;20381;-47
2022/05/23 10:01:46;;;;;;;0.75;0.70;;;;;;;;;;5031446;28;20069;-46
2022/05/23 10:04:31;;;;;;;6.65;1.08;;;;;;;;;;5031318;28;20056;-48
2022/05/23 10:06:57;;;;;;;3.55;0.98;;;;;;;;;;5031468;28;20029;-46
2022/05/23 10:09:28;;;;;;;2.72;1.08;;;;;;;;;;5031453;28;20060;-47
2022/05/23 10:12:08;;;;;;;1.48;0.90;;;;;;;;;;5031389;28;20055;-44
2022/05/23 10:14:49;;;;;;;1.15;1.00;;;;;;;;;;5031276;28;20147;-44
2022/05/23 10:17:29;;;;;;;1.30;0.90;;;;;;;;;;5031192;28;20505;-47
2022/05/23 10:20:20;;;;;;;1.48;1.00;;;;;;;;;;5030918;28;20429;-46
2022/05/23 10:22:59;;;;;;;1.10;1.00;;;;;;;;;;5031118;28;20117;-47
2022/05/23 10:25:27;;;;;;;1.48;0.80;;;;;;;;;;5030978;28;20485;-47
2022/05/23 10:27:58;;;;;;;2.55;0.75;;;;;;;;;;5031394;28;20040;-48
2022/05/23 10:30:30;;;;;;;1.60;0.80;;;;;;;;;;5030097;28;20112;-46
2022/05/23 10:33:12;;;;;;;0.73;0.68;;;;;;;;;;5031310;28;20033;-45
2022/05/23 10:36:17;;;;;;;0.30;0.30;;;;;;;;;;5031208;28;20037;-46
2022/05/23 10:42:10;;;;;;;1.08;0.80;;;;;;;;;;5032259;28;20090;-47
2022/05/23 10:44:56;;;;;;;1.70;1.10;;;;;;;;;;5031179;28;20040;-47
2022/05/23 10:47:45;;;;;;;1.55;1.10;;;;;;;;;;5031236;28;20038;-47
2022/05/23 10:50:18;;;;;;;0.98;0.98;;;;;;;;;;5030915;28;20028;-46
2022/05/23 10:53:02;;;;;;;0.90;0.90;;;;;;;;;;5030699;28;20854;-47
2022/05/23 10:55:42;;;;;;;1.40;0.90;;;;;;;;;;5031023;28;20037;-47
2022/05/23 10:58:19;;;;;;;1.02;0.50;;;;;;;;;;5031099;28;20029;-47
2022/05/23 11:01:11;;;;;;;1.63;1.00;;;;;;;;;;5030791;28;20643;-48
2022/05/23 11:03:48;;;;;;;1.33;0.82;;;;;;;;;;5019713;28;20084;-48
2022/05/23 11:06:28;;;;;;;1.35;1.00;;;;;;;;;;5030531;28;20049;-47
2022/05/23 11:09:12;;;;;;;1.27;0.90;;;;;;;;;;5030694;28;20095;-48
2022/05/23 11:11:41;;;;;;;5.30;2.53;;;;;;;;;;5030520;28;20021;-47
2022/05/23 11:14:18;;;;;;;3.25;1.42;;;;;;;;;;5030545;28;20037;-47
2022/05/23 11:17:06;;;;;;;2.28;1.25;;;;;;;;;;5030922;28;20037;-47
2022/05/23 11:19:53;;;;;;;7.15;1.48;;;;;;;;;;5029942;28;20545;-47
2022/05/23 11:22:28;;;;;;;3.55;1.10;;;;;;;;;;5030502;28;20037;-52
2022/05/23 11:25:23;;;;;;;4.95;1.20;;;;;;;;;;5030675;28;20063;-52
2022/05/23 11:33:47;;;;;;;5.90;2.90;;;;;;;;;;5037752;28;20090;-47
2022/05/23 11:36:23;;;;;;;2.80;1.13;;;;;;;;;;5043279;28;20033;-48
2022/05/23 11:38:50;;;;;;;4.65;0.95;;;;;;;;;;5046374;28;20033;-45
2022/05/23 11:41:46;;;;;;;1.00;1.00;;;;;;;;;;5054228;28;20136;-45
2022/05/23 11:44:42;;;;;;;0.82;0.73;;;;;;;;;;5054080;28;20066;-46
2022/05/23 11:47:25;;;;;;;2.53;0.68;;;;;;;;;;5035322;28;20030;-47
2022/05/23 11:50:26;;;;;;;1.25;1.20;;;;;;;;;;5036456;28;20037;-47
2022/05/23 11:53:18;;;;;;;1.63;1.00;;;;;;;;;;5046425;28;20065;-45
2022/05/23 11:55:54;;;;;;;3.70;1.20;;;;;;;;;;5032383;28;20025;-44
2022/05/23 11:58:25;;;;;;;4.90;1.50;;;;;;;;;;5034156;28;20025;-48
2022/05/23 12:01:02;;;;;;;2.17;1.50;;;;;;;;;;5033640;28;20546;-45
2022/05/23 12:03:47;;;;;;;2.35;1.02;;;;;;;;;;5033885;28;20045;-50
2022/05/23 12:06:15;;;;;;;1.20;1.10;;;;;;;;;;5033524;28;20389;-47
2022/05/23 12:08:40;;;;;;;4.30;1.25;;;;;;;;;;5033757;28;20045;-50
2022/05/23 12:11:21;;;;;;;1.33;1.08;;;;;;;;;;5015994;28;20599;-48
2022/05/23 12:13:49;;;;;;;0.77;0.77;;;;;;;;;;5033198;28;20032;-50
2022/05/23 12:16:22;;;;;;;2.63;1.10;;;;;;;;;;5038423;28;20029;-48
2022/05/23 12:18:49;;;;;;;0.63;0.63;;;;;;;;;;5042028;28;20037;-46
2022/05/23 12:21:36;;;;;;;2.67;1.25;;;;;;;;;;5042059;28;20028;-46
2022/05/23 12:24:22;;;;;;;2.90;1.30;;;;;;;;;;5038711;28;20061;-51
2022/05/23 12:26:51;;;;;;;3.75;1.30;;;;;;;;;;5033601;28;20057;-49
2022/05/23 12:29:34;;;;;;;4.15;1.55;;;;;;;;;;5033261;28;20030;-51
2022/05/23 12:32:21;;;;;;;4.25;1.20;;;;;;;;;;5033295;28;20056;-48
2022/05/23 12:34:51;;;;;;;1.73;1.20;;;;;;;;;;5033380;28;20380;-50
2022/05/23 12:37:26;;;;;;;;;;;;;;;;;;5033916;28;20389;-53
2022/05/23 12:40:12;;;;;;;3.88;1.10;;;;;;;;;;5033187;28;20027;-50
2022/05/23 12:43:12;;;;;;;1.67;1.27;;;;;;;;;;5001582;28;20041;-49
2022/05/23 12:45:55;;;;;;;;;;;;;;;;;;5033840;28;20036;-47
2022/05/23 12:48:42;;;;;;;2.03;1.25;;;;;;;;;;5033064;28;19917;-50
2022/05/23 12:51:17;;;;;;;1.90;1.40;;;;;;;;;;5032718;28;20076;-46
2022/05/23 12:53:55;;;;;;;8.05;1.85;;;;;;;;;;5032781;28;20392;-50
2022/05/23 12:56:38;;;;;;;5.70;2.53;;;;;;;;;;5032940;28;20105;-49
2022/05/23 12:59:19;;;;;;;2.97;2.10;;;;;;;;;;5033095;28;20120;-48
2022/05/23 13:01:50;;;;;;;1.30;1.20;;;;;;;;;;5031483;28;20432;-47
2022/05/23 13:04:21;;;;;;;1.27;1.00;;;;;;;;;;5031597;28;20053;-47
2022/05/23 13:06:56;;;;;;;1.75;1.02;;;;;;;;;;5032147;28;20128;-47
2022/05/23 13:09:39;;;;;;;6.40;1.20;;;;;;;;;;5032298;28;20428;-48
2022/05/23 13:12:09;;;;;;;2.17;1.60;;;;;;;;;;5031674;28;20083;-47
2022/05/23 13:14:47;;;;;;;;;;;;;;;;;;5033041;28;20037;-48
2022/05/23 13:17:12;;;;;;;4.90;1.70;;;;;;;;;;5032505;28;19916;-48
2022/05/23 13:22:37;;;;;;;3.30;1.40;;;;;;;;;;5032257;28;20080;-49
2022/05/23 13:25:03;;;;;;;1.52;1.02;;;;;;;;;;5032705;28;20091;-45
2022/05/23 13:27:31;;;;;;;5.45;1.42;;;;;;;;;;5032174;28;20037;-49
2022/05/23 13:30:00;;;;;;;1.20;1.10;;;;;;;;;;5030776;28;20068;-51
2022/05/23 13:32:27;;;;;;;2.03;1.10;;;;;;;;;;5031691;28;20048;-45
2022/05/23 13:34:54;;;;;;;15.05;4.70;;;;;;;;;;5014203;28;20029;-49
2022/05/23 13:37:28;;;;;;;2.35;1.45;;;;;;;;;;5032331;28;20033;-47
2022/05/23 13:39:54;;;;;;;6.20;3.50;;;;;;;;;;5031987;28;20029;-50
2022/05/23 13:42:25;;;;;;;10.80;6.40;;;;;;;;;;5031744;28;20117;-48
2022/05/23 13:44:51;;;;;;;4.75;3.28;;;;;;;;;;5031842;28;20033;-49
2022/05/23 13:47:32;;;;;;;14.57;4.60;;;;;;;;;;5032131;28;20045;-51
2022/05/23 13:50:08;;;;;;;2.78;1.40;;;;;;;;;;5031591;28;20124;-48
2022/05/23 13:52:44;;;;;;;2.85;1.20;;;;;;;;;;5031169;28;20034;-47
2022/05/23 13:55:23;;;;;;;4.47;1.30;;;;;;;;;;5031296;28;20040;-44
2022/05/23 13:58:01;;;;;;;5.07;1.20;;;;;;;;;;5031591;28;20540;-49
2022/05/23 14:00:37;;;;;;;4.53;1.30;;;;;;;;;;5031263;28;20044;-47
2022/05/23 14:03:25;;;;;;;2.45;1.20;;;;;;;;;;5031094;28;20501;-44
2022/05/23 14:05:53;;;;;;;9.80;4.05;;;;;;;;;;5020376;28;20052;-48
2022/05/23 14:08:41;;;;;;;2.30;1.13;;;;;;;;;;5031665;28;20129;-50
2022/05/23 14:11:17;;;;;;;2.28;1.27;;;;;;;;;;5031509;28;20026;-50
2022/05/23 14:13:44;;;;;;;2.50;1.40;;;;;;;;;;5034895;28;20488;-48
2022/05/23 14:16:17;;;;;;;3.88;1.88;;;;;;;;;;5051269;28;20064;-48
2022/05/23 14:18:42;;;;;;;4.43;1.75;;;;;;;;;;5051114;28;20028;-46
2022/05/23 14:21:35;;;;;;;2.28;1.67;;;;;;;;;;5051235;28;20110;-48
2022/05/23 14:24:02;;;;;;;6.97;1.50;;;;;;;;;;5051346;28;20055;-45
2022/05/23 14:26:28;;;;;;;1.55;1.08;;;;;;;;;;5051390;28;20040;-47
2022/05/23 14:28:57;;;;;;;3.47;1.50;;;;;;;;;;5051003;28;20025;-49
2022/05/23 14:31:46;;;;;;;3.60;1.30;;;;;;;;;;5051122;28;20035;-47
2022/05/23 14:34:26;;;;;;;3.72;0.98;;;;;;;;;;5050854;28;20091;-48
2022/05/23 14:37:02;;;;;;;1.30;1.10;;;;;;;;;;5051220;28;20032;-48
2022/05/23 14:39:30;;;;;;;2.47;1.15;;;;;;;;;;5051129;28;20126;-49
2022/05/23 14:41:57;;;;;;;2.65;1.25;;;;;;;;;;5050703;28;20108;-48
2022/05/23 14:44:29;;;;;;;1.35;1.15;;;;;;;;;;5050603;28;20116;-48
2022/05/23 14:47:13;;;;;;;4.38;1.38;;;;;;;;;;5051148;28;20393;-47
2022/05/23 14:50:18;;;;;;;6.05;1.58;;;;;;;;;;5050768;28;20029;-45
2022/05/23 14:55:47;;;;;;;5.38;1.80;;;;;;;;;;4969748;28;20545;-47
2022/05/23 15:01:02;;;;;;;2.38;1.10;;;;;;;;;;5050828;28;20090;-46
2022/05/23 15:03:42;;;;;;;1.77;1.30;;;;;;;;;;5050551;28;20033;-45
2022/05/23 15:06:08;;;;;;;5.45;1.30;;;;;;;;;;5057486;28;20053;-47
2022/05/23 15:08:34;;;;;;;2.33;1.17;;;;;;;;;;5057509;28;20116;-45
2022/05/23 15:11:00;;;;;;;1.50;1.30;;;;;;;;;;5039489;28;20041;-50
2022/05/23 15:13:30;;;;;;;1.25;1.17;;;;;;;;;;5057505;28;20031;-47
2022/05/23 15:16:02;;;;;;;2.10;1.05;;;;;;;;;;5057558;28;20033;-47
2022/05/23 15:18:30;;;;;;;4.47;1.20;;;;;;;;;;5057152;28;20447;-45
2022/05/23 15:20:55;;;;;;;2.60;1.50;;;;;;;;;;5057106;28;20036;-48
2022/05/23 15:23:21;;;;;;;2.95;1.58;;;;;;;;;;5056845;28;20040;-47
2022/05/23 15:25:47;;;;;;;3.28;1.50;;;;;;;;;;5057161;28;20067;-44
2022/05/23 15:28:13;;;;;;;3.15;1.45;;;;;;;;;;5057034;28;20120;-49
2022/05/23 15:30:38;;;;;;;4.45;2.00;;;;;;;;;;5056857;28;20044;-51
2022/05/23 15:33:04;;;;;;;4.38;1.33;;;;;;;;;;5057317;28;20029;-44
2022/05/23 15:35:30;;;;;;;1.58;1.30;;;;;;;;;;5056934;28;20082;-44
2022/05/23 15:37:56;;;;;;;5.03;2.20;;;;;;;;;;5057197;28;20040;-44
2022/05/23 15:40:23;;;;;;;3.17;1.52;;;;;;;;;;5057306;28;20029;-46
2022/05/23 15:42:50;;;;;;;1.95;1.30;;;;;;;;;;5056984;28;20028;-47
2022/05/23 15:45:28;;;;;;;2.33;1.40;;;;;;;;;;5057179;28;20021;-46
2022/05/23 15:47:54;;;;;;;3.05;2.08;;;;;;;;;;5057294;28;20039;-44
2022/05/23 15:50:20;;;;;;;3.53;1.52;;;;;;;;;;5057161;28;20033;-44
2022/05/23 15:52:46;;;;;;;2.65;1.80;;;;;;;;;;5057073;28;20094;-47
2022/05/23 15:55:12;;;;;;;1.85;1.70;;;;;;;;;;5058614;28;20032;-46
2022/05/23 15:57:46;;;;;;;4.18;1.30;;;;;;;;;;5058378;28;20021;-46
2022/05/23 16:00:18;;;;;;;1.60;1.50;;;;;;;;;;5058259;28;20488;-44
2022/05/23 16:02:44;;;;;;;1.35;1.23;;;;;;;;;;5058225;28;20034;-49
2022/05/23 16:05:11;;;;;;;2.88;1.20;;;;;;;;;;5058007;28;20519;-48
2022/05/23 16:07:37;;;;;;;3.70;1.33;;;;;;;;;;5058388;28;20037;-45
2022/05/23 16:10:05;;;;;;;1.77;1.30;;;;;;;;;;5058264;28;20529;-47